Ritchie, Illinois
Current Conditions -  °F | °C
As of 10:35 PM on Saturday 22 Nov 2014 (Local Time) from KJOT Reporting Station
Overcast Overcast  
Wind Chill: 51°   Ceiling: 2500
Heat Index: 51°   Visibility: 10mi
Dew Point: 46°   Wind: 13mph
Humidity: 83%   Direction: 200°SSW
Pressure: 29.85"   Gusts: 17mph
Location:  41.3199°N, 88.0518°W
Report Text: KJOT 230435Z AUTO 20011G15KT 10SM OVC025 11/08 A2985 RMK AO2 T01080080
Loading
Personal Weather Stations






























Interactive Weather Map New forecast layout! Learn more

10-Day Weather Forecast

Advertisements
Track Severe Weather on mobile